sensor_id;sensor_type;location;lat;lon;timestamp;pressure;altitude;pressure_sealevel;temperature;humidity
52625;BME280;38519;52.540;13.410;2023-09-19T00:00:33;45402.88;;;-146.17;100.00
52625;BME280;38519;52.540;13.410;2023-09-19T00:02:59;45406.84;;;-146.17;100.00
52625;BME280;38519;52.540;13.410;2023-09-19T00:05:26;45442.41;;;-146.17;100.00
52625;BME280;38519;52.540;13.410;2023-09-19T00:07:53;45436.50;;;-146.17;100.00
52625;BME280;38519;52.540;13.410;2023-09-19T00:10:24;45412.78;;;-146.17;100.00
52625;BME280;38519;52.540;13.410;2023-09-19T00:12:55;45404.88;;;-146.17;100.00
52625;BME280;38519;52.540;13.410;2023-09-19T00:15:24;45412.78;;;-146.17;100.00
52625;BME280;38519;52.540;13.410;2023-09-19T00:17:51;45379.19;;;-146.17;100.00
52625;BME280;38519;52.540;13.410;2023-09-19T00:20:17;45428.59;;;-146.17;100.00
52625;BME280;38519;52.540;13.410;2023-09-19T00:22:44;45462.19;;;-146.17;100.00
52625;BME280;38519;52.540;13.410;2023-09-19T00:25:10;45410.78;;;-146.17;100.00
52625;BME280;38519;52.540;13.410;2023-09-19T00:27:37;45430.56;;;-146.17;100.00
52625;BME280;38519;52.540;13.410;2023-09-19T00:30:06;45444.41;;;-146.17;100.00
52625;BME280;38519;52.540;13.410;2023-09-19T00:32:33;45444.41;;;-146.17;100.00
52625;BME280;38519;52.540;13.410;2023-09-19T00:34:59;45420.69;;;-146.17;100.00
52625;BME280;38519;52.540;13.410;2023-09-19T00:37:25;45400.91;;;-146.17;100.00
52625;BME280;38519;52.540;13.410;2023-09-19T00:39:50;45446.38;;;-146.17;100.00
52625;BME280;38519;52.540;13.410;2023-09-19T00:42:20;45410.78;;;-146.17;100.00
52625;BME280;38519;52.540;13.410;2023-09-19T00:44:46;45412.78;;;-146.17;100.00
52625;BME280;38519;52.540;13.410;2023-09-19T00:47:12;45412.78;;;-146.17;100.00
52625;BME280;38519;52.540;13.410;2023-09-19T00:49:43;45398.94;;;-146.17;100.00
52625;BME280;38519;52.540;13.410;2023-09-19T00:52:08;45387.09;;;-146.17;100.00
52625;BME280;38519;52.540;13.410;2023-09-19T00:54:37;45430.56;;;-146.17;100.00
52625;BME280;38519;52.540;13.410;2023-09-19T00:57:02;45442.41;;;-146.17;100.00
52625;BME280;38519;52.540;13.410;2023-09-19T00:59:28;45444.41;;;-146.17;100.00
52625;BME280;38519;52.540;13.410;2023-09-19T01:01:56;45412.78;;;-146.17;100.00
52625;BME280;38519;52.540;13.410;2023-09-19T01:04:21;45418.69;;;-146.17;100.00
52625;BME280;38519;52.540;13.410;2023-09-19T01:06:49;45402.88;;;-146.17;100.00
52625;BME280;38519;52.540;13.410;2023-09-19T01:09:19;45418.69;;;-146.17;100.00
52625;BME280;38519;52.540;13.410;2023-09-19T01:11:46;45434.50;;;-146.17;100.00
52625;BME280;38519;52.540;13.410;2023-09-19T01:19:53;45426.59;;;-146.17;100.00
52625;BME280;38519;52.540;13.410;2023-09-19T01:22:36;45430.56;;;-146.17;100.00
52625;BME280;38519;52.540;13.410;2023-09-19T01:30:14;45430.56;;;-146.17;100.00
52625;BME280;38519;52.540;13.410;2023-09-19T01:32:42;45420.69;;;-146.17;100.00
52625;BME280;38519;52.540;13.410;2023-09-19T01:35:08;45436.50;;;-146.17;100.00
52625;BME280;38519;52.540;13.410;2023-09-19T01:37:38;45394.97;;;-146.17;100.00
52625;BME280;38519;52.540;13.410;2023-09-19T01:40:07;45426.59;;;-146.17;100.00
52625;BME280;38519;52.540;13.410;2023-09-19T01:46:04;45426.59;;;-146.17;100.00
52625;BME280;38519;52.540;13.410;2023-09-19T01:48:29;45438.47;;;-146.17;100.00
52625;BME280;38519;52.540;13.410;2023-09-19T01:56:42;45426.59;;;-146.17;100.00
52625;BME280;38519;52.540;13.410;2023-09-19T01:59:12;45430.56;;;-146.17;100.00
52625;BME280;38519;52.540;13.410;2023-09-19T02:01:39;45418.69;;;-146.17;100.00
52625;BME280;38519;52.540;13.410;2023-09-19T02:04:05;45420.69;;;-146.17;100.00
52625;BME280;38519;52.540;13.410;2023-09-19T02:06:32;45450.31;;;-146.17;100.00
52625;BME280;38519;52.540;13.410;2023-09-19T02:08:59;45400.91;;;-146.17;100.00
52625;BME280;38519;52.540;13.410;2023-09-19T02:11:24;45442.41;;;-146.17;100.00
52625;BME280;38519;52.540;13.410;2023-09-19T02:13:50;45391.03;;;-146.17;100.00
52625;BME280;38519;52.540;13.410;2023-09-19T02:16:20;45418.69;;;-146.17;100.00
52625;BME280;38519;52.540;13.410;2023-09-19T02:18:47;45400.91;;;-146.17;100.00
52625;BME280;38519;52.540;13.410;2023-09-19T02:21:14;45408.81;;;-146.17;100.00
52625;BME280;38519;52.540;13.410;2023-09-19T02:23:40;45406.84;;;-146.17;100.00
52625;BME280;38519;52.540;13.410;2023-09-19T02:26:06;45416.72;;;-146.17;100.00
52625;BME280;38519;52.540;13.410;2023-09-19T02:28:33;45474.03;;;-146.17;100.00
52625;BME280;38519;52.540;13.410;2023-09-19T02:30:59;45428.59;;;-146.17;100.00
52625;BME280;38519;52.540;13.410;2023-09-19T02:33:26;45472.06;;;-146.17;100.00
52625;BME280;38519;52.540;13.410;2023-09-19T02:35:56;45470.09;;;-146.17;100.00
52625;BME280;38519;52.540;13.410;2023-09-19T02:38:25;45458.22;;;-146.17;100.00
52625;BME280;38519;52.540;13.410;2023-09-19T02:40:51;45442.41;;;-146.17;100.00
52625;BME280;38519;52.540;13.410;2023-09-19T02:43:17;45478.00;;;-146.17;100.00
52625;BME280;38519;52.540;13.410;2023-09-19T02:45:44;45434.50;;;-146.17;100.00
52625;BME280;38519;52.540;13.410;2023-09-19T02:48:10;45446.38;;;-146.17;100.00
52625;BME280;38519;52.540;13.410;2023-09-19T02:50:37;45454.28;;;-146.17;100.00
52625;BME280;38519;52.540;13.410;2023-09-19T02:53:02;45420.69;;;-146.17;100.00
52625;BME280;38519;52.540;13.410;2023-09-19T02:55:29;45479.97;;;-146.17;100.00
52625;BME280;38519;52.540;13.410;2023-09-19T02:57:55;45483.91;;;-146.17;100.00
52625;BME280;38519;52.540;13.410;2023-09-19T03:00:21;45448.34;;;-146.17;100.00
52625;BME280;38519;52.540;13.410;2023-09-19T03:02:50;45456.25;;;-146.17;100.00
52625;BME280;38519;52.540;13.410;2023-09-19T03:05:17;45424.63;;;-146.17;100.00
52625;BME280;38519;52.540;13.410;2023-09-19T03:07:43;45446.38;;;-146.17;100.00
52625;BME280;38519;52.540;13.410;2023-09-19T03:10:09;45487.88;;;-146.17;100.00
52625;BME280;38519;52.540;13.410;2023-09-19T03:12:35;45448.34;;;-146.17;100.00
52625;BME280;38519;52.540;13.410;2023-09-19T03:15:01;45430.56;;;-146.17;100.00
52625;BME280;38519;52.540;13.410;2023-09-19T03:17:26;45426.59;;;-146.17;100.00
52625;BME280;38519;52.540;13.410;2023-09-19T03:19:52;45410.78;;;-146.17;100.00
52625;BME280;38519;52.540;13.410;2023-09-19T03:22:19;45444.41;;;-146.17;100.00
52625;BME280;38519;52.540;13.410;2023-09-19T03:24:46;45436.50;;;-146.17;100.00
52625;BME280;38519;52.540;13.410;2023-09-19T03:27:11;45440.44;;;-146.17;100.00
52625;BME280;38519;52.540;13.410;2023-09-19T03:29:39;45440.44;;;-146.17;100.00
52625;BME280;38519;52.540;13.410;2023-09-19T03:32:05;45470.09;;;-146.17;100.00
52625;BME280;38519;52.540;13.410;2023-09-19T03:34:30;45442.41;;;-146.17;100.00
52625;BME280;38519;52.540;13.410;2023-09-19T03:36:56;45416.72;;;-146.17;100.00
52625;BME280;38519;52.540;13.410;2023-09-19T03:39:21;45485.91;;;-146.17;100.00
52625;BME280;38519;52.540;13.410;2023-09-19T03:41:47;45442.41;;;-146.17;100.00
52625;BME280;38519;52.540;13.410;2023-09-19T03:44:13;45440.44;;;-146.17;100.00
52625;BME280;38519;52.540;13.410;2023-09-19T03:46:38;45462.19;;;-146.17;100.00
52625;BME280;38519;52.540;13.410;2023-09-19T03:49:04;45446.38;;;-146.17;100.00
52625;BME280;38519;52.540;13.410;2023-09-19T03:51:29;45416.72;;;-146.17;100.00
52625;BME280;38519;52.540;13.410;2023-09-19T03:53:55;45412.78;;;-146.17;100.00
52625;BME280;38519;52.540;13.410;2023-09-19T03:56:21;45446.38;;;-146.17;100.00
52625;BME280;38519;52.540;13.410;2023-09-19T03:58:46;45483.91;;;-146.17;100.00
52625;BME280;38519;52.540;13.410;2023-09-19T04:01:12;45438.47;;;-146.17;100.00
52625;BME280;38519;52.540;13.410;2023-09-19T04:03:38;45454.28;;;-146.17;100.00
52625;BME280;38519;52.540;13.410;2023-09-19T04:06:16;45460.19;;;-146.17;100.00
52625;BME280;38519;52.540;13.410;2023-09-19T04:08:42;45489.84;;;-146.17;100.00
52625;BME280;38519;52.540;13.410;2023-09-19T04:11:09;45442.41;;;-146.17;100.00
52625;BME280;38519;52.540;13.410;2023-09-19T04:13:35;45472.06;;;-146.17;100.00
52625;BME280;38519;52.540;13.410;2023-09-19T04:16:02;45416.72;;;-146.17;100.00
52625;BME280;38519;52.540;13.410;2023-09-19T04:18:29;45434.50;;;-146.17;100.00
52625;BME280;38519;52.540;13.410;2023-09-19T04:20:58;45434.50;;;-146.17;100.00
52625;BME280;38519;52.540;13.410;2023-09-19T04:23:23;45466.13;;;-146.17;100.00
52625;BME280;38519;52.540;13.410;2023-09-19T04:25:48;45428.59;;;-146.17;100.00
52625;BME280;38519;52.540;13.410;2023-09-19T04:28:14;45458.22;;;-146.17;100.00
52625;BME280;38519;52.540;13.410;2023-09-19T04:30:40;45442.41;;;-146.17;100.00
52625;BME280;38519;52.540;13.410;2023-09-19T04:33:06;45434.50;;;-146.17;100.00
52625;BME280;38519;52.540;13.410;2023-09-19T04:35:32;45458.22;;;-146.17;100.00
52625;BME280;38519;52.540;13.410;2023-09-19T04:37:58;45456.25;;;-146.17;100.00
52625;BME280;38519;52.540;13.410;2023-09-19T04:40:23;45452.31;;;-146.17;100.00
52625;BME280;38519;52.540;13.410;2023-09-19T04:42:56;45470.09;;;-146.17;100.00
52625;BME280;38519;52.540;13.410;2023-09-19T04:45:25;45426.59;;;-146.17;100.00
52625;BME280;38519;52.540;13.410;2023-09-19T04:47:52;45434.50;;;-146.17;100.00
52625;BME280;38519;52.540;13.410;2023-09-19T04:50:18;45458.22;;;-146.17;100.00
52625;BME280;38519;52.540;13.410;2023-09-19T04:52:44;45450.31;;;-146.17;100.00
52625;BME280;38519;52.540;13.410;2023-09-19T04:55:13;45454.28;;;-146.17;100.00
52625;BME280;38519;52.540;13.410;2023-09-19T05:00:14;45420.69;;;-146.17;100.00
52625;BME280;38519;52.540;13.410;2023-09-19T05:02:42;45470.09;;;-146.17;100.00
52625;BME280;38519;52.540;13.410;2023-09-19T05:05:08;45458.22;;;-146.17;100.00
52625;BME280;38519;52.540;13.410;2023-09-19T05:07:36;45479.97;;;-146.17;100.00
52625;BME280;38519;52.540;13.410;2023-09-19T05:10:02;45505.66;;;-146.17;100.00
52625;BME280;38519;52.540;13.410;2023-09-19T05:12:34;45487.88;;;-146.17;100.00
52625;BME280;38519;52.540;13.410;2023-09-19T05:15:01;45454.28;;;-146.17;100.00
52625;BME280;38519;52.540;13.410;2023-09-19T05:17:27;45501.72;;;-146.17;100.00
52625;BME280;38519;52.540;13.410;2023-09-19T05:19:53;45440.44;;;-146.17;100.00
52625;BME280;38519;52.540;13.410;2023-09-19T05:22:18;45444.41;;;-146.17;100.00
52625;BME280;38519;52.540;13.410;2023-09-19T05:24:43;45481.94;;;-146.17;100.00
52625;BME280;38519;52.540;13.410;2023-09-19T05:27:12;45493.81;;;-146.17;100.00
52625;BME280;38519;52.540;13.410;2023-09-19T05:29:38;45446.38;;;-146.17;100.00
52625;BME280;38519;52.540;13.410;2023-09-19T05:32:03;45470.09;;;-146.17;100.00
52625;BME280;38519;52.540;13.410;2023-09-19T05:34:29;45479.97;;;-146.17;100.00
52625;BME280;38519;52.540;13.410;2023-09-19T05:36:55;45483.91;;;-146.17;100.00
52625;BME280;38519;52.540;13.410;2023-09-19T05:39:21;45454.28;;;-146.17;100.00
52625;BME280;38519;52.540;13.410;2023-09-19T05:41:47;45468.09;;;-146.17;100.00
52625;BME280;38519;52.540;13.410;2023-09-19T05:44:14;45476.00;;;-146.17;100.00
52625;BME280;38519;52.540;13.410;2023-09-19T05:46:40;45438.47;;;-146.17;100.00
52625;BME280;38519;52.540;13.410;2023-09-19T05:49:05;45444.41;;;-146.17;100.00
52625;BME280;38519;52.540;13.410;2023-09-19T05:51:31;45491.81;;;-146.17;100.00
52625;BME280;38519;52.540;13.410;2023-09-19T05:53:56;45493.81;;;-146.17;100.00
52625;BME280;38519;52.540;13.410;2023-09-19T05:56:21;45478.00;;;-146.17;100.00
52625;BME280;38519;52.540;13.410;2023-09-19T05:58:47;45479.97;;;-146.17;100.00
52625;BME280;38519;52.540;13.410;2023-09-19T06:01:13;45460.19;;;-146.17;100.00
52625;BME280;38519;52.540;13.410;2023-09-19T06:03:38;45485.91;;;-146.17;100.00
52625;BME280;38519;52.540;13.410;2023-09-19T06:06:04;45466.13;;;-146.17;100.00
52625;BME280;38519;52.540;13.410;2023-09-19T06:08:32;45454.28;;;-146.17;100.00
52625;BME280;38519;52.540;13.410;2023-09-19T06:10:57;45450.31;;;-146.17;100.00
52625;BME280;38519;52.540;13.410;2023-09-19T06:13:23;45470.09;;;-146.17;100.00
52625;BME280;38519;52.540;13.410;2023-09-19T06:15:52;45493.81;;;-146.17;100.00
52625;BME280;38519;52.540;13.410;2023-09-19T06:18:17;45418.69;;;-146.17;100.00
52625;BME280;38519;52.540;13.410;2023-09-19T06:20:47;45474.03;;;-146.17;100.00
52625;BME280;38519;52.540;13.410;2023-09-19T06:23:14;45434.50;;;-146.17;100.00
52625;BME280;38519;52.540;13.410;2023-09-19T06:25:40;45493.81;;;-146.17;100.00
52625;BME280;38519;52.540;13.410;2023-09-19T06:28:05;45485.91;;;-146.17;100.00
52625;BME280;38519;52.540;13.410;2023-09-19T06:30:33;45472.06;;;-146.17;100.00
52625;BME280;38519;52.540;13.410;2023-09-19T06:33:00;45491.81;;;-146.17;100.00
52625;BME280;38519;52.540;13.410;2023-09-19T06:35:26;45450.31;;;-146.17;100.00
52625;BME280;38519;52.540;13.410;2023-09-19T06:37:51;45474.03;;;-146.17;100.00
52625;BME280;38519;52.540;13.410;2023-09-19T06:40:18;45468.09;;;-146.17;100.00
52625;BME280;38519;52.540;13.410;2023-09-19T06:42:44;45452.31;;;-146.17;100.00
52625;BME280;38519;52.540;13.410;2023-09-19T06:45:13;45446.38;;;-146.17;100.00
52625;BME280;38519;52.540;13.410;2023-09-19T06:47:43;45428.59;;;-146.17;100.00
52625;BME280;38519;52.540;13.410;2023-09-19T06:50:10;45414.75;;;-146.17;100.00
52625;BME280;38519;52.540;13.410;2023-09-19T06:52:39;45462.19;;;-146.17;100.00
52625;BME280;38519;52.540;13.410;2023-09-19T06:55:06;45458.22;;;-146.17;100.00
52625;BME280;38519;52.540;13.410;2023-09-19T06:57:32;45454.28;;;-146.17;100.00
52625;BME280;38519;52.540;13.410;2023-09-19T06:59:58;45456.25;;;-146.17;100.00
52625;BME280;38519;52.540;13.410;2023-09-19T07:02:23;45442.41;;;-146.17;100.00
52625;BME280;38519;52.540;13.410;2023-09-19T07:04:49;45444.41;;;-146.17;100.00
52625;BME280;38519;52.540;13.410;2023-09-19T07:07:15;45410.78;;;-146.17;100.00
52625;BME280;38519;52.540;13.410;2023-09-19T07:09:41;45434.50;;;-146.17;100.00
52625;BME280;38519;52.540;13.410;2023-09-19T07:12:07;45434.50;;;-146.17;100.00
52625;BME280;38519;52.540;13.410;2023-09-19T07:14:33;45430.56;;;-146.17;100.00
52625;BME280;38519;52.540;13.410;2023-09-19T07:16:59;45400.91;;;-146.17;100.00
52625;BME280;38519;52.540;13.410;2023-09-19T07:19:28;45373.25;;;-146.17;100.00
52625;BME280;38519;52.540;13.410;2023-09-19T07:21:56;45434.50;;;-146.17;100.00
52625;BME280;38519;52.540;13.410;2023-09-19T07:24:24;45369.28;;;-146.17;100.00
52625;BME280;38519;52.540;13.410;2023-09-19T07:26:54;45398.94;;;-146.17;100.00
52625;BME280;38519;52.540;13.410;2023-09-19T07:29:21;45387.09;;;-146.17;100.00
52625;BME280;38519;52.540;13.410;2023-09-19T07:31:46;45379.19;;;-146.17;100.00
52625;BME280;38519;52.540;13.410;2023-09-19T07:34:12;45385.09;;;-146.17;100.00
52625;BME280;38519;52.540;13.410;2023-09-19T07:36:39;45389.06;;;-146.17;100.00
52625;BME280;38519;52.540;13.410;2023-09-19T07:39:05;45418.69;;;-146.17;100.00
52625;BME280;38519;52.540;13.410;2023-09-19T07:41:32;45424.63;;;-146.17;100.00
52625;BME280;38519;52.540;13.410;2023-09-19T07:43:58;45412.78;;;-146.17;100.00
52625;BME280;38519;52.540;13.410;2023-09-19T07:46:23;45408.81;;;-146.17;100.00
52625;BME280;38519;52.540;13.410;2023-09-19T07:48:50;45418.69;;;-146.17;100.00
52625;BME280;38519;52.540;13.410;2023-09-19T07:51:15;45420.69;;;-146.17;100.00
52625;BME280;38519;52.540;13.410;2023-09-19T07:53:41;45398.94;;;-146.17;100.00
52625;BME280;38519;52.540;13.410;2023-09-19T07:56:08;45424.63;;;-146.17;100.00
52625;BME280;38519;52.540;13.410;2023-09-19T07:58:34;45398.94;;;-146.17;100.00
52625;BME280;38519;52.540;13.410;2023-09-19T08:01:06;45387.09;;;-146.17;100.00
52625;BME280;38519;52.540;13.410;2023-09-19T08:03:33;45410.78;;;-146.17;100.00
52625;BME280;38519;52.540;13.410;2023-09-19T08:05:59;45396.97;;;-146.17;100.00
52625;BME280;38519;52.540;13.410;2023-09-19T08:08:25;45379.19;;;-146.17;99.49
52625;BME280;38519;52.540;13.410;2023-09-19T08:10:55;45355.47;;;-146.17;97.54
52625;BME280;38519;52.540;13.410;2023-09-19T08:13:23;45371.28;;;-146.17;97.81
52625;BME280;38519;52.540;13.410;2023-09-19T08:15:49;45375.22;;;-146.17;98.18
52625;BME280;38519;52.540;13.410;2023-09-19T08:18:16;45406.84;;;-146.17;98.54
52625;BME280;38519;52.540;13.410;2023-09-19T08:20:42;45408.81;;;-146.17;98.58
52625;BME280;38519;52.540;13.410;2023-09-19T08:23:11;45349.53;;;-146.17;96.87
52625;BME280;38519;52.540;13.410;2023-09-19T08:25:37;45387.09;;;-146.17;97.18
52625;BME280;38519;52.540;13.410;2023-09-19T08:28:04;45434.50;;;-146.17;97.96
52625;BME280;38519;52.540;13.410;2023-09-19T08:30:33;45375.22;;;-146.17;98.57
52625;BME280;38519;52.540;13.410;2023-09-19T08:32:59;45406.84;;;-146.17;97.63
52625;BME280;38519;52.540;13.410;2023-09-19T08:35:26;45400.91;;;-146.17;98.38
52625;BME280;38519;52.540;13.410;2023-09-19T08:37:51;45387.09;;;-146.17;97.33
52625;BME280;38519;52.540;13.410;2023-09-19T08:40:16;45402.88;;;-146.17;99.72
52625;BME280;38519;52.540;13.410;2023-09-19T08:45:15;45389.06;;;-146.17;99.64
52625;BME280;38519;52.540;13.410;2023-09-19T08:47:42;45389.06;;;-146.17;99.08
52625;BME280;38519;52.540;13.410;2023-09-19T08:50:23;45414.75;;;-146.17;99.03
52625;BME280;38519;52.540;13.410;2023-09-19T08:52:51;45391.03;;;-146.17;97.42
52625;BME280;38519;52.540;13.410;2023-09-19T08:55:19;45422.66;;;-146.17;97.52
52625;BME280;38519;52.540;13.410;2023-09-19T08:57:52;45402.88;;;-146.17;97.52
52625;BME280;38519;52.540;13.410;2023-09-19T09:00:18;45402.88;;;-146.17;95.85
52625;BME280;38519;52.540;13.410;2023-09-19T09:02:46;45375.22;;;-146.17;95.96
52625;BME280;38519;52.540;13.410;2023-09-19T09:05:12;45379.19;;;-146.17;94.76
52625;BME280;38519;52.540;13.410;2023-09-19T09:07:38;45400.91;;;-146.17;98.02
52625;BME280;38519;52.540;13.410;2023-09-19T09:10:04;45375.22;;;-146.17;94.57
52625;BME280;38519;52.540;13.410;2023-09-19T09:12:30;45391.03;;;-146.17;92.36
52625;BME280;38519;52.540;13.410;2023-09-19T09:14:55;45383.13;;;-146.17;91.00
52625;BME280;38519;52.540;13.410;2023-09-19T09:17:25;45355.47;;;-146.17;90.71
52625;BME280;38519;52.540;13.410;2023-09-19T09:19:53;45375.22;;;-146.17;90.15
52625;BME280;38519;52.540;13.410;2023-09-19T09:22:18;45359.41;;;-146.17;89.32
52625;BME280;38519;52.540;13.410;2023-09-19T09:24:56;45349.53;;;-146.17;90.42
52625;BME280;38519;52.540;13.410;2023-09-19T09:27:26;45351.50;;;-146.17;87.79
52625;BME280;38519;52.540;13.410;2023-09-19T09:29:53;45339.66;;;-146.17;86.27
52625;BME280;38519;52.540;13.410;2023-09-19T09:34:57;45349.53;;;-146.17;80.79
52625;BME280;38519;52.540;13.410;2023-09-19T09:37:23;45339.66;;;-146.17;72.85
52625;BME280;38519;52.540;13.410;2023-09-19T09:39:58;45323.84;;;-146.17;72.75
52625;BME280;38519;52.540;13.410;2023-09-19T09:42:42;45347.56;;;-146.17;72.27
52625;BME280;38519;52.540;13.410;2023-09-19T09:45:12;45337.66;;;-146.17;73.43
52625;BME280;38519;52.540;13.410;2023-09-19T09:47:56;45325.81;;;-146.17;72.71
52625;BME280;38519;52.540;13.410;2023-09-19T09:52:55;45327.78;;;-146.17;70.20
52625;BME280;38519;52.540;13.410;2023-09-19T09:55:28;45337.66;;;-146.17;70.23
52625;BME280;38519;52.540;13.410;2023-09-19T10:00:52;45321.88;;;-146.17;70.58
52625;BME280;38519;52.540;13.410;2023-09-19T10:03:21;45345.56;;;-146.17;69.96
52625;BME280;38519;52.540;13.410;2023-09-19T10:05:53;45333.72;;;-146.17;71.50
52625;BME280;38519;52.540;13.410;2023-09-19T10:08:20;45319.88;;;-146.17;70.91
52625;BME280;38519;52.540;13.410;2023-09-19T10:10:46;45284.31;;;-146.17;71.81
52625;BME280;38519;52.540;13.410;2023-09-19T10:13:17;45284.31;;;-146.17;72.29
52625;BME280;38519;52.540;13.410;2023-09-19T10:15:48;45290.25;;;-146.17;71.66
52625;BME280;38519;52.540;13.410;2023-09-19T10:18:21;45280.38;;;-146.17;73.47
52625;BME280;38519;52.540;13.410;2023-09-19T10:20:47;45284.31;;;-146.17;74.02
52625;BME280;38519;52.540;13.410;2023-09-19T10:23:14;45278.38;;;-146.17;73.64
52625;BME280;38519;52.540;13.410;2023-09-19T10:25:43;45329.78;;;-146.17;73.59
52625;BME280;38519;52.540;13.410;2023-09-19T10:28:11;45274.44;;;-146.17;73.79
52625;BME280;38519;52.540;13.410;2023-09-19T10:30:48;45339.66;;;-146.17;74.62
52625;BME280;38519;52.540;13.410;2023-09-19T10:33:16;45329.78;;;-146.17;74.23
52625;BME280;38519;52.540;13.410;2023-09-19T10:35:45;45335.69;;;-146.17;74.70
52625;BME280;38519;52.540;13.410;2023-09-19T10:38:11;45319.88;;;-146.17;75.07
52625;BME280;38519;52.540;13.410;2023-09-19T10:40:37;45294.19;;;-146.17;75.15
52625;BME280;38519;52.540;13.410;2023-09-19T10:43:06;45278.38;;;-146.17;75.11
52625;BME280;38519;52.540;13.410;2023-09-19T10:45:32;45284.31;;;-146.17;74.61
52625;BME280;38519;52.540;13.410;2023-09-19T10:47:59;45335.69;;;-146.17;75.38
52625;BME280;38519;52.540;13.410;2023-09-19T10:50:26;45329.78;;;-146.17;76.08
52625;BME280;38519;52.540;13.410;2023-09-19T10:52:54;45321.88;;;-146.17;76.02
52625;BME280;38519;52.540;13.410;2023-09-19T10:55:30;45319.88;;;-146.17;75.33
52625;BME280;38519;52.540;13.410;2023-09-19T10:57:56;45315.94;;;-146.17;74.50
52625;BME280;38519;52.540;13.410;2023-09-19T11:00:52;45333.72;;;-146.17;74.24
52625;BME280;38519;52.540;13.410;2023-09-19T11:03:19;45313.97;;;-146.17;73.67
52625;BME280;38519;52.540;13.410;2023-09-19T11:06:19;45313.97;;;-146.17;72.87
52625;BME280;38519;52.540;13.410;2023-09-19T11:22:23;45300.13;;;-146.17;74.49
52625;BME280;38519;52.540;13.410;2023-09-19T11:24:51;45296.16;;;-146.17;74.72
52625;BME280;38519;52.540;13.410;2023-09-19T11:27:16;45292.22;;;-146.17;74.72
52625;BME280;38519;52.540;13.410;2023-09-19T11:29:43;45268.50;;;-146.17;73.44
52625;BME280;38519;52.540;13.410;2023-09-19T11:32:09;45288.25;;;-146.17;73.91
52625;BME280;38519;52.540;13.410;2023-09-19T11:34:42;45258.63;;;-146.17;73.61
52625;BME280;38519;52.540;13.410;2023-09-19T11:39:37;45290.25;;;-146.17;73.90
52625;BME280;38519;52.540;13.410;2023-09-19T11:44:52;45311.97;;;-146.17;74.96
52625;BME280;38519;52.540;13.410;2023-09-19T11:47:21;45292.22;;;-146.17;74.25
52625;BME280;38519;52.540;13.410;2023-09-19T11:49:47;45252.69;;;-146.17;72.80
52625;BME280;38519;52.540;13.410;2023-09-19T11:52:18;45280.38;;;-146.17;72.30
52625;BME280;38519;52.540;13.410;2023-09-19T11:54:47;45264.56;;;-146.17;72.54
52625;BME280;38519;52.540;13.410;2023-09-19T11:57:22;45246.75;;;-146.17;73.00
52625;BME280;38519;52.540;13.410;2023-09-19T11:59:47;45232.94;;;-146.17;72.55
52625;BME280;38519;52.540;13.410;2023-09-19T12:02:14;45266.53;;;-146.17;73.03
52625;BME280;38519;52.540;13.410;2023-09-19T12:04:46;45258.63;;;-146.17;73.03
52625;BME280;38519;52.540;13.410;2023-09-19T12:07:15;45280.38;;;-146.17;73.43
52625;BME280;38519;52.540;13.410;2023-09-19T12:09:45;45254.66;;;-146.17;73.35
52625;BME280;38519;52.540;13.410;2023-09-19T12:12:22;45268.50;;;-146.17;72.64
52625;BME280;38519;52.540;13.410;2023-09-19T12:14:49;45252.69;;;-146.17;73.67
52625;BME280;38519;52.540;13.410;2023-09-19T12:17:15;45280.38;;;-146.17;73.72
52625;BME280;38519;52.540;13.410;2023-09-19T12:19:55;45290.25;;;-146.17;72.34
52625;BME280;38519;52.540;13.410;2023-09-19T12:22:20;45252.69;;;-146.17;72.18
52625;BME280;38519;52.540;13.410;2023-09-19T12:24:46;45260.59;;;-146.17;71.98
52625;BME280;38519;52.540;13.410;2023-09-19T12:27:11;45250.72;;;-146.17;72.32
52625;BME280;38519;52.540;13.410;2023-09-19T12:29:44;45260.59;;;-146.17;72.35
52625;BME280;38519;52.540;13.410;2023-09-19T12:32:10;45270.47;;;-146.17;71.87
52625;BME280;38519;52.540;13.410;2023-09-19T12:34:39;45254.66;;;-146.17;72.07
52625;BME280;38519;52.540;13.410;2023-09-19T12:37:14;45240.84;;;-146.17;71.78
52625;BME280;38519;52.540;13.410;2023-09-19T12:40:04;45228.97;;;-146.17;71.67
52625;BME280;38519;52.540;13.410;2023-09-19T12:42:40;45240.84;;;-146.17;71.29
52625;BME280;38519;52.540;13.410;2023-09-19T12:45:07;45228.97;;;-146.17;70.88
52625;BME280;38519;52.540;13.410;2023-09-19T12:47:35;45217.13;;;-146.17;70.35
52625;BME280;38519;52.540;13.410;2023-09-19T12:52:44;45213.16;;;-146.17;70.02
52625;BME280;38519;52.540;13.410;2023-09-19T12:58:01;45232.94;;;-146.17;70.87
52625;BME280;38519;52.540;13.410;2023-09-19T13:00:34;45219.09;;;-146.17;70.85
52625;BME280;38519;52.540;13.410;2023-09-19T13:05:50;45234.91;;;-146.17;71.48
52625;BME280;38519;52.540;13.410;2023-09-19T13:08:18;45278.38;;;-146.17;71.23
52625;BME280;38519;52.540;13.410;2023-09-19T13:13:50;45225.03;;;-146.17;72.43
52625;BME280;38519;52.540;13.410;2023-09-19T13:16:20;45248.75;;;-146.17;72.38
52625;BME280;38519;52.540;13.410;2023-09-19T13:18:53;45242.81;;;-146.17;72.92
52625;BME280;38519;52.540;13.410;2023-09-19T13:21:31;45250.72;;;-146.17;73.04
52625;BME280;38519;52.540;13.410;2023-09-19T13:24:24;45258.63;;;-146.17;73.58
52625;BME280;38519;52.540;13.410;2023-09-19T13:26:54;45232.94;;;-146.17;72.47
52625;BME280;38519;52.540;13.410;2023-09-19T13:29:19;45238.84;;;-146.17;71.69